createdAt,value
2023-01-29T00:01:54.070Z,22.60
2023-01-29T00:04:20.788Z,24.00
2023-01-29T00:06:47.249Z,20.70
2023-01-29T00:09:14.584Z,21.02
2023-01-29T00:11:41.581Z,27.23
2023-01-29T00:14:08.153Z,21.83
2023-01-29T00:16:34.659Z,21.15
2023-01-29T00:19:02.554Z,18.92
2023-01-29T00:21:31.060Z,20.92
2023-01-29T00:23:58.599Z,20.75
2023-01-29T00:26:25.325Z,20.17
2023-01-29T00:28:51.786Z,20.15
2023-01-29T00:31:21.272Z,22.50
2023-01-29T00:33:49.418Z,23.65
2023-01-29T00:36:17.983Z,21.88
2023-01-29T00:38:44.731Z,18.57
2023-01-29T00:41:32.559Z,21.05
2023-01-29T00:44:18.895Z,22.08
2023-01-29T00:46:45.809Z,23.67
2023-01-29T00:49:12.509Z,25.27
2023-01-29T00:51:39.327Z,27.53
2023-01-29T00:54:06.828Z,23.15
2023-01-29T00:56:35.874Z,22.17
2023-01-29T00:59:02.818Z,22.27
2023-01-29T01:01:48.111Z,24.75
2023-01-29T01:04:14.566Z,26.13
2023-01-29T01:06:42.581Z,22.55
2023-01-29T01:09:29.226Z,21.08
2023-01-29T01:11:56.015Z,24.98
2023-01-29T01:14:22.544Z,24.00
2023-01-29T01:16:49.459Z,24.23
2023-01-29T01:19:16.383Z,26.58
2023-01-29T01:21:45.495Z,21.40
2023-01-29T01:24:15.341Z,23.45
2023-01-29T01:26:42.424Z,20.88
2023-01-29T01:29:09.189Z,28.30
2023-01-29T01:31:35.814Z,24.08
2023-01-29T01:34:02.441Z,24.92
2023-01-29T01:36:29.016Z,23.35
2023-01-29T01:38:55.706Z,24.92
2023-01-29T01:41:24.000Z,24.27
2023-01-29T01:43:54.009Z,23.98
2023-01-29T01:46:21.551Z,24.83
2023-01-29T01:48:54.443Z,24.15
2023-01-29T01:51:24.453Z,25.17
2023-01-29T01:53:58.119Z,25.03
2023-01-29T01:56:40.897Z,26.50
2023-01-29T01:59:12.071Z,28.83
2023-01-29T02:01:42.792Z,29.00
2023-01-29T02:04:35.452Z,25.95
2023-01-29T02:07:23.197Z,28.23
2023-01-29T02:10:00.672Z,27.25
2023-01-29T02:12:31.067Z,26.55
2023-01-29T02:14:57.814Z,28.52
2023-01-29T02:17:24.390Z,29.73
2023-01-29T02:20:09.288Z,24.87
2023-01-29T02:22:55.270Z,29.45
2023-01-29T02:25:30.805Z,25.08
2023-01-29T02:28:30.763Z,27.73
2023-01-29T02:31:08.586Z,25.95
2023-01-29T02:33:50.254Z,30.30
2023-01-29T02:36:27.420Z,28.75
2023-01-29T02:39:28.351Z,29.08
2023-01-29T02:42:20.197Z,27.98
2023-01-29T02:45:15.677Z,28.20
2023-01-29T02:48:00.505Z,28.70
2023-01-29T02:50:48.578Z,29.10
2023-01-29T02:53:19.155Z,24.55
2023-01-29T02:56:09.611Z,28.35
2023-01-29T02:58:59.477Z,28.25
2023-01-29T03:01:39.976Z,26.73
2023-01-29T03:04:16.055Z,24.90
2023-01-29T03:06:49.449Z,27.63
2023-01-29T03:09:35.908Z,26.55
2023-01-29T03:12:29.124Z,22.67
2023-01-29T03:15:14.050Z,27.90
2023-01-29T03:17:49.374Z,24.92
2023-01-29T03:20:19.898Z,27.15
2023-01-29T03:22:53.089Z,27.83
2023-01-29T03:25:41.674Z,26.15
2023-01-29T03:28:31.088Z,27.73
2023-01-29T03:31:21.571Z,26.23
2023-01-29T03:34:04.283Z,24.38
2023-01-29T03:36:47.889Z,31.65
2023-01-29T03:39:16.055Z,27.30
2023-01-29T03:41:54.067Z,27.60
2023-01-29T03:44:56.095Z,30.15
2023-01-29T03:47:37.531Z,26.30
2023-01-29T03:50:11.176Z,27.38
2023-01-29T03:52:43.660Z,29.30
2023-01-29T03:55:15.506Z,27.90
2023-01-29T03:57:51.856Z,33.17
2023-01-29T04:00:31.923Z,27.75
2023-01-29T04:03:16.567Z,30.90
2023-01-29T04:05:51.453Z,29.20
2023-01-29T04:08:24.968Z,29.47
2023-01-29T04:10:56.191Z,27.63
2023-01-29T04:13:24.922Z,33.05
2023-01-29T04:15:58.054Z,28.88
2023-01-29T04:18:25.056Z,29.40
2023-01-29T04:20:51.966Z,31.50
2023-01-29T04:23:24.071Z,28.70
2023-01-29T04:26:07.129Z,27.95
2023-01-29T04:28:53.490Z,27.67
2023-01-29T04:31:24.969Z,33.40
2023-01-29T04:34:28.256Z,29.50
2023-01-29T04:37:07.645Z,31.23
2023-01-29T04:39:46.325Z,27.33
2023-01-29T04:42:23.466Z,27.27
2023-01-29T04:45:01.727Z,27.75
2023-01-29T04:47:47.936Z,25.83
2023-01-29T04:50:35.223Z,28.85
2023-01-29T04:53:01.709Z,27.10
2023-01-29T04:55:35.963Z,24.40
2023-01-29T04:58:15.313Z,27.88
2023-01-29T05:00:50.053Z,27.03
2023-01-29T05:03:16.838Z,28.40
2023-01-29T05:05:47.951Z,28.73
2023-01-29T05:08:18.156Z,29.85
2023-01-29T05:10:47.549Z,28.08
2023-01-29T05:13:14.975Z,27.97
2023-01-29T05:16:08.840Z,25.85
2023-01-29T05:18:35.993Z,26.20
2023-01-29T05:21:06.301Z,24.98
2023-01-29T05:23:32.975Z,27.08
2023-01-29T05:25:59.531Z,24.97
2023-01-29T05:28:25.970Z,24.95
2023-01-29T05:30:55.095Z,25.55
2023-01-29T05:33:30.350Z,24.25
2023-01-29T05:35:59.041Z,27.15
2023-01-29T05:38:25.733Z,27.50
2023-01-29T05:40:52.250Z,28.02
2023-01-29T05:43:21.065Z,27.60
2023-01-29T05:45:59.183Z,28.40
2023-01-29T05:48:28.880Z,29.08
2023-01-29T05:51:03.338Z,26.70
2023-01-29T05:53:31.082Z,28.48
2023-01-29T05:56:01.426Z,31.55
2023-01-29T05:58:27.934Z,26.92
2023-01-29T06:00:54.426Z,26.60
2023-01-29T06:03:20.855Z,26.87
2023-01-29T06:05:47.298Z,26.98
2023-01-29T06:08:13.752Z,26.95
2023-01-29T06:10:40.207Z,26.02
2023-01-29T06:13:07.042Z,26.63
2023-01-29T06:15:33.514Z,26.33
2023-01-29T06:18:00.027Z,27.33
2023-01-29T06:20:26.676Z,27.83
2023-01-29T06:22:53.171Z,26.95
2023-01-29T06:25:19.634Z,29.35
2023-01-29T06:27:46.146Z,26.17
2023-01-29T06:30:12.883Z,32.38
2023-01-29T06:32:39.351Z,28.80
2023-01-29T06:35:06.253Z,30.65
2023-01-29T06:37:32.821Z,27.05
2023-01-29T06:39:59.284Z,28.50
2023-01-29T06:42:28.003Z,29.52
2023-01-29T06:44:55.603Z,31.05
2023-01-29T06:47:23.023Z,29.67
2023-01-29T06:49:50.237Z,28.25
2023-01-29T06:52:16.725Z,27.87
2023-01-29T06:54:43.154Z,29.83
2023-01-29T06:57:09.601Z,31.63
2023-01-29T06:59:36.071Z,29.48
2023-01-29T07:02:04.059Z,27.77
2023-01-29T07:04:30.691Z,30.33
2023-01-29T07:06:58.886Z,26.38
2023-01-29T07:09:25.363Z,29.65
2023-01-29T07:11:51.838Z,34.20
2023-01-29T07:14:18.281Z,26.42
2023-01-29T07:16:44.714Z,26.80
2023-01-29T07:19:11.166Z,27.40
2023-01-29T07:21:37.864Z,25.33
2023-01-29T07:24:04.676Z,30.00
2023-01-29T07:26:31.226Z,27.13
2023-01-29T07:28:57.653Z,26.23
2023-01-29T07:31:24.183Z,24.23
2023-01-29T07:33:50.712Z,27.40
2023-01-29T07:36:17.173Z,24.65
2023-01-29T07:38:43.636Z,27.13
2023-01-29T07:41:11.574Z,25.83
2023-01-29T07:43:38.126Z,27.23
2023-01-29T07:46:05.233Z,26.05
2023-01-29T07:48:31.898Z,26.63
2023-01-29T07:50:59.085Z,25.05
2023-01-29T07:53:27.010Z,25.47
2023-01-29T07:55:53.631Z,24.05
2023-01-29T07:58:20.144Z,26.27
2023-01-29T08:00:46.644Z,25.05
2023-01-29T08:03:20.084Z,25.42
2023-01-29T08:05:46.970Z,26.40
2023-01-29T08:08:13.528Z,24.40
2023-01-29T08:10:40.649Z,23.70
2023-01-29T08:13:08.174Z,26.17
2023-01-29T08:15:37.939Z,28.27
2023-01-29T08:18:05.611Z,24.03
2023-01-29T08:20:32.182Z,25.65
2023-01-29T08:23:03.310Z,26.65
2023-01-29T08:25:30.276Z,25.25
2023-01-29T08:28:00.574Z,23.38
2023-01-29T08:30:29.298Z,27.00
2023-01-29T08:32:55.766Z,22.52
2023-01-29T08:35:22.284Z,21.10
2023-01-29T08:37:56.061Z,26.83
2023-01-29T08:40:22.610Z,22.92
2023-01-29T08:42:49.190Z,19.93
2023-01-29T08:45:15.953Z,22.42
2023-01-29T08:47:49.937Z,25.90
2023-01-29T08:50:17.979Z,23.38
2023-01-29T08:52:45.466Z,23.48
2023-01-29T08:55:12.456Z,25.07
2023-01-29T08:57:39.229Z,21.85
2023-01-29T09:00:07.417Z,25.65
2023-01-29T09:02:33.983Z,23.33
2023-01-29T09:05:00.503Z,29.05
2023-01-29T09:07:27.027Z,21.57
2023-01-29T09:09:53.471Z,24.30
2023-01-29T09:12:19.945Z,19.67
2023-01-29T09:14:46.582Z,22.75
2023-01-29T09:17:13.042Z,21.80
2023-01-29T09:19:39.514Z,21.20
2023-01-29T09:22:05.952Z,18.42
2023-01-29T09:24:32.838Z,25.73
2023-01-29T09:26:59.299Z,22.42
2023-01-29T09:29:25.741Z,19.52
2023-01-29T09:31:52.940Z,20.03
2023-01-29T09:34:19.591Z,21.75
2023-01-29T09:36:46.347Z,20.60
2023-01-29T09:39:12.878Z,18.70
2023-01-29T09:41:49.342Z,22.75
2023-01-29T09:44:46.359Z,23.00
2023-01-29T09:47:15.952Z,20.38
2023-01-29T09:50:05.845Z,22.70
2023-01-29T09:52:38.672Z,24.23
2023-01-29T09:55:21.116Z,24.13
2023-01-29T09:58:00.145Z,22.77
2023-01-29T10:00:35.390Z,20.45
2023-01-29T10:03:17.037Z,22.10
2023-01-29T10:06:00.122Z,21.30
2023-01-29T10:08:44.822Z,29.13
2023-01-29T10:11:26.274Z,21.13
2023-01-29T10:14:17.772Z,22.33
2023-01-29T10:17:21.865Z,22.13
2023-01-29T10:20:25.276Z,22.73
2023-01-29T10:22:51.652Z,22.48
2023-01-29T10:25:21.404Z,22.27
2023-01-29T10:27:54.963Z,21.73
2023-01-29T10:30:29.130Z,22.60
2023-01-29T10:33:04.949Z,20.95
2023-01-29T10:35:41.042Z,19.02
2023-01-29T10:38:45.999Z,28.03
2023-01-29T10:41:56.266Z,23.73
2023-01-29T10:45:20.369Z,22.40
2023-01-29T10:48:11.671Z,23.38
2023-01-29T10:50:50.633Z,26.88
2023-01-29T10:53:39.823Z,26.03
2023-01-29T10:56:34.510Z,24.48
2023-01-29T10:59:15.563Z,21.60
2023-01-29T11:01:42.103Z,21.85
2023-01-29T11:04:12.764Z,23.02
2023-01-29T11:06:39.226Z,26.37
2023-01-29T11:09:23.914Z,21.70
2023-01-29T11:12:01.511Z,23.23
2023-01-29T11:14:44.445Z,23.60
2023-01-29T11:17:19.086Z,28.58
2023-01-29T11:19:47.522Z,22.07
2023-01-29T11:22:25.130Z,25.45
2023-01-29T11:25:16.631Z,20.10
2023-01-29T11:27:53.010Z,24.75
2023-01-29T11:30:30.490Z,25.83
2023-01-29T11:33:19.625Z,23.13
2023-01-29T11:35:46.525Z,26.33
2023-01-29T11:38:15.936Z,25.00
2023-01-29T11:40:43.511Z,27.85
2023-01-29T11:43:30.623Z,31.25
2023-01-29T11:46:05.513Z,28.33
2023-01-29T11:48:45.918Z,24.60
2023-01-29T11:51:22.404Z,27.58
2023-01-29T11:53:59.793Z,29.92
2023-01-29T11:56:32.944Z,34.47
2023-01-29T11:59:04.409Z,26.60
2023-01-29T12:01:36.295Z,25.50
2023-01-29T12:04:04.798Z,30.55
2023-01-29T12:06:37.910Z,22.35
2023-01-29T12:09:15.517Z,28.20
2023-01-29T12:11:42.839Z,26.43
2023-01-29T12:14:29.967Z,21.67
2023-01-29T12:17:21.372Z,29.50
2023-01-29T12:19:54.733Z,25.30
2023-01-29T12:22:33.187Z,27.13
2023-01-29T12:25:10.031Z,30.20
2023-01-29T12:27:46.211Z,21.40
2023-01-29T12:30:24.853Z,28.27
2023-01-29T12:33:13.470Z,29.35
2023-01-29T12:35:48.156Z,27.77
2023-01-29T12:38:23.145Z,30.57
2023-01-29T12:41:06.262Z,27.92
2023-01-29T12:43:51.385Z,28.20
2023-01-29T12:46:29.105Z,28.02
2023-01-29T12:48:59.064Z,30.20
2023-01-29T12:51:31.256Z,27.93
2023-01-29T12:54:05.835Z,28.23
2023-01-29T12:56:42.911Z,28.90
2023-01-29T12:59:45.730Z,29.50
2023-01-29T13:02:18.589Z,39.20
2023-01-29T13:04:53.342Z,28.10
2023-01-29T13:07:25.850Z,30.45
2023-01-29T13:09:56.955Z,35.67
2023-01-29T13:12:24.598Z,30.55
2023-01-29T13:14:56.468Z,27.08
2023-01-29T13:17:37.721Z,31.40
2023-01-29T13:20:12.966Z,31.75
2023-01-29T13:22:42.651Z,27.02
2023-01-29T13:25:18.172Z,31.25
2023-01-29T13:27:47.651Z,34.65
2023-01-29T13:30:24.447Z,28.17
2023-01-29T13:32:54.385Z,33.75
2023-01-29T13:35:23.595Z,31.75
2023-01-29T13:37:53.529Z,32.85
2023-01-29T13:40:28.963Z,29.50
2023-01-29T13:42:59.875Z,27.13
2023-01-29T13:45:29.976Z,27.15
2023-01-29T13:48:09.800Z,27.88
2023-01-29T13:50:39.986Z,30.05
2023-01-29T13:53:09.107Z,31.02
2023-01-29T13:55:38.329Z,31.83
2023-01-29T13:58:37.963Z,33.00
2023-01-29T14:01:04.716Z,31.02
2023-01-29T14:03:45.025Z,32.17
2023-01-29T14:06:40.043Z,25.33
2023-01-29T14:09:34.035Z,30.47
2023-01-29T14:12:00.684Z,28.40
2023-01-29T14:14:48.942Z,19.23
2023-01-29T14:17:17.228Z,28.17
2023-01-29T14:19:54.687Z,28.83
2023-01-29T14:22:24.687Z,30.73
2023-01-29T14:24:57.210Z,31.08
2023-01-29T14:27:28.036Z,29.98
2023-01-29T14:30:06.123Z,36.88
2023-01-29T14:32:33.452Z,27.33
2023-01-29T14:35:02.752Z,29.00
2023-01-29T14:37:35.410Z,35.78
2023-01-29T14:40:26.398Z,31.50
2023-01-29T14:43:19.922Z,26.55
2023-01-29T14:45:49.936Z,32.42
2023-01-29T14:48:35.176Z,34.13
2023-01-29T14:51:20.671Z,33.50
2023-01-29T14:54:02.822Z,28.10
2023-01-29T14:56:34.142Z,33.50
2023-01-29T14:59:27.051Z,32.40
2023-01-29T15:01:56.496Z,37.20
2023-01-29T15:04:38.358Z,32.00
2023-01-29T15:07:23.018Z,31.67
2023-01-29T15:10:21.326Z,34.63
2023-01-29T15:13:09.311Z,30.17
2023-01-29T15:15:52.792Z,32.80
2023-01-29T15:18:29.043Z,29.50
2023-01-29T15:21:15.723Z,30.90
2023-01-29T15:23:47.769Z,34.28
2023-01-29T15:26:24.757Z,31.13
2023-01-29T15:29:04.169Z,33.77
2023-01-29T15:31:32.033Z,30.70
2023-01-29T15:34:07.643Z,31.60
2023-01-29T15:36:36.545Z,25.95
2023-01-29T15:39:16.296Z,34.28
2023-01-29T15:41:44.270Z,32.03
2023-01-29T15:44:26.882Z,37.95
2023-01-29T15:46:56.945Z,34.05
2023-01-29T15:49:33.837Z,36.70
2023-01-29T15:52:04.705Z,35.85
2023-01-29T15:54:33.746Z,25.70
2023-01-29T15:57:01.808Z,30.75
2023-01-29T15:59:41.664Z,29.00
2023-01-29T16:02:37.666Z,31.98
2023-01-29T16:05:17.776Z,28.98
2023-01-29T16:07:45.271Z,31.37
2023-01-29T16:10:20.291Z,27.77
2023-01-29T16:12:51.395Z,33.22
2023-01-29T16:15:32.125Z,28.77
2023-01-29T16:18:00.228Z,30.98
2023-01-29T16:20:37.604Z,36.83
2023-01-29T16:23:05.481Z,35.92
2023-01-29T16:25:34.815Z,28.45
2023-01-29T16:28:05.450Z,36.67
2023-01-29T16:30:32.101Z,33.42
2023-01-29T16:33:07.561Z,36.23
2023-01-29T16:35:35.755Z,23.73
2023-01-29T16:38:15.119Z,32.45
2023-01-29T16:41:27.755Z,25.02
2023-01-29T16:44:01.706Z,35.28
2023-01-29T16:46:45.527Z,35.57
2023-01-29T16:49:30.441Z,34.22
2023-01-29T16:52:16.735Z,34.55
2023-01-29T16:54:43.335Z,34.17
2023-01-29T16:57:35.796Z,27.65
2023-01-29T17:00:08.742Z,28.73
2023-01-29T17:02:39.218Z,33.15
2023-01-29T17:05:10.033Z,34.35
2023-01-29T17:07:37.978Z,35.05
2023-01-29T17:10:06.718Z,39.25
2023-01-29T17:12:33.940Z,25.63
2023-01-29T17:15:03.982Z,33.72
2023-01-29T17:17:34.100Z,28.30
2023-01-29T17:20:14.042Z,35.38
2023-01-29T17:22:40.663Z,31.70
2023-01-29T17:25:07.689Z,31.53
2023-01-29T17:27:34.126Z,29.45
2023-01-29T17:30:00.619Z,38.42
2023-01-29T17:32:44.128Z,29.08
2023-01-29T17:35:16.397Z,32.00
2023-01-29T17:37:44.314Z,36.17
2023-01-29T17:40:39.336Z,33.42
2023-01-29T17:43:06.934Z,29.38
2023-01-29T17:45:33.768Z,27.60
2023-01-29T17:48:00.287Z,36.17
2023-01-29T17:50:30.209Z,33.73
2023-01-29T17:52:56.682Z,31.38
2023-01-29T17:55:23.193Z,30.67
2023-01-29T17:57:49.953Z,31.23
2023-01-29T18:00:19.809Z,23.38
2023-01-29T18:02:46.652Z,30.87
2023-01-29T18:05:14.769Z,31.23
2023-01-29T18:07:42.878Z,37.28
2023-01-29T18:10:27.283Z,30.33
2023-01-29T18:12:53.773Z,30.23
2023-01-29T18:15:20.790Z,35.33
2023-01-29T18:17:48.401Z,37.20
2023-01-29T18:20:22.586Z,27.58
2023-01-29T18:22:49.415Z,34.22
2023-01-29T18:25:16.363Z,26.83
2023-01-29T18:27:43.277Z,33.27
2023-01-29T18:30:10.556Z,31.88
2023-01-29T18:32:37.214Z,36.63
2023-01-29T18:35:05.826Z,28.48
2023-01-29T18:37:33.194Z,32.58
2023-01-29T18:40:00.126Z,34.07
2023-01-29T18:42:26.570Z,36.97
2023-01-29T18:44:53.102Z,26.58
2023-01-29T18:47:19.645Z,26.30
2023-01-29T18:49:46.178Z,32.58
2023-01-29T18:52:12.702Z,27.63
2023-01-29T18:54:39.211Z,27.15
2023-01-29T18:57:13.640Z,32.70
2023-01-29T18:59:52.153Z,28.70
2023-01-29T19:02:22.042Z,30.02
2023-01-29T19:04:48.544Z,30.73
2023-01-29T19:07:15.411Z,28.95
2023-01-29T19:09:43.103Z,31.38
2023-01-29T19:12:09.645Z,27.77
2023-01-29T19:14:36.096Z,32.03
2023-01-29T19:17:04.584Z,35.70
2023-01-29T19:19:31.488Z,36.40
2023-01-29T19:21:58.190Z,25.70
2023-01-29T19:24:24.699Z,25.30
2023-01-29T19:26:51.292Z,24.48
2023-01-29T19:29:18.113Z,29.70
2023-01-29T19:31:44.740Z,33.35
2023-01-29T19:34:11.322Z,32.33
2023-01-29T19:36:37.809Z,32.30
2023-01-29T19:39:04.584Z,39.63
2023-01-29T19:41:31.129Z,36.40
2023-01-29T19:43:57.610Z,30.33
2023-01-29T19:46:24.146Z,45.05
2023-01-29T19:48:50.618Z,36.13
2023-01-29T19:51:17.162Z,29.23
2023-01-29T19:53:44.199Z,33.93
2023-01-29T19:56:16.246Z,33.95
2023-01-29T19:58:43.103Z,37.78
2023-01-29T20:01:14.287Z,30.23
2023-01-29T20:03:46.498Z,40.65
2023-01-29T20:06:15.580Z,31.63
2023-01-29T20:08:42.703Z,28.55
2023-01-29T20:11:10.008Z,33.97
2023-01-29T20:13:36.557Z,40.28
2023-01-29T20:16:04.744Z,38.10
2023-01-29T20:18:31.992Z,37.47
2023-01-29T20:20:58.748Z,30.45
2023-01-29T20:23:37.122Z,42.55
2023-01-29T20:26:04.841Z,31.50
2023-01-29T20:28:31.360Z,36.20
2023-01-29T20:30:59.016Z,37.10
2023-01-29T20:33:26.285Z,35.28
2023-01-29T20:36:00.933Z,35.17
2023-01-29T20:38:30.460Z,35.72
2023-01-29T20:41:23.234Z,36.75
2023-01-29T20:43:50.936Z,35.47
2023-01-29T20:46:18.415Z,41.78
2023-01-29T20:48:45.053Z,33.55
2023-01-29T20:51:15.610Z,38.38
2023-01-29T20:53:45.385Z,33.85
2023-01-29T20:56:13.265Z,43.53
2023-01-29T20:58:41.108Z,36.33
2023-01-29T21:01:12.375Z,57.38
2023-01-29T21:03:39.593Z,41.92
2023-01-29T21:06:07.470Z,34.65
2023-01-29T21:08:35.314Z,32.83
2023-01-29T21:11:02.746Z,39.70
2023-01-29T21:13:29.212Z,38.25
2023-01-29T21:15:55.695Z,43.72
2023-01-29T21:18:25.616Z,35.63
2023-01-29T21:20:53.278Z,34.23
2023-01-29T21:23:20.398Z,38.67
2023-01-29T21:25:46.932Z,35.65
2023-01-29T21:28:14.147Z,36.90
2023-01-29T21:30:40.857Z,43.25
2023-01-29T21:33:07.627Z,29.40
2023-01-29T21:35:36.739Z,38.90
2023-01-29T21:38:04.011Z,39.10
2023-01-29T21:40:30.550Z,36.05
2023-01-29T21:43:12.099Z,43.90
2023-01-29T21:45:39.584Z,37.17
2023-01-29T21:48:06.759Z,40.55
2023-01-29T21:50:33.306Z,43.53
2023-01-29T21:52:59.885Z,31.63
2023-01-29T21:55:27.789Z,42.75
2023-01-29T21:57:54.303Z,40.27
2023-01-29T22:00:20.925Z,36.25
2023-01-29T22:02:47.593Z,45.08
2023-01-29T22:05:19.261Z,38.45
2023-01-29T22:07:47.248Z,37.60
2023-01-29T22:10:14.602Z,38.47
2023-01-29T22:12:41.574Z,39.40
2023-01-29T22:15:09.224Z,29.85
2023-01-29T22:17:35.726Z,41.00
2023-01-29T22:20:02.632Z,42.70
2023-01-29T22:22:29.123Z,39.50
2023-01-29T22:24:57.631Z,35.92
2023-01-29T22:27:24.583Z,29.92
2023-01-29T22:29:51.072Z,42.80
2023-01-29T22:32:17.621Z,40.58
2023-01-29T22:34:44.112Z,43.40
2023-01-29T22:37:10.522Z,39.33
2023-01-29T22:39:37.004Z,35.67
2023-01-29T22:42:03.835Z,40.22
2023-01-29T22:44:30.346Z,42.88
2023-01-29T22:46:56.855Z,32.13
2023-01-29T22:49:25.081Z,30.30
2023-01-29T22:52:09.844Z,28.88
2023-01-29T22:54:41.187Z,38.83
2023-01-29T22:57:12.474Z,42.33
2023-01-29T22:59:39.337Z,27.10
2023-01-29T23:02:06.955Z,34.17
2023-01-29T23:04:33.704Z,34.67
2023-01-29T23:07:00.234Z,38.67
2023-01-29T23:09:26.752Z,34.95
2023-01-29T23:11:53.239Z,33.03
2023-01-29T23:14:19.807Z,41.97
2023-01-29T23:16:46.289Z,44.80
2023-01-29T23:19:12.760Z,40.83
2023-01-29T23:21:39.890Z,37.55
2023-01-29T23:24:07.664Z,45.13
2023-01-29T23:26:52.575Z,40.67
2023-01-29T23:29:19.159Z,41.38
2023-01-29T23:31:45.705Z,34.45
2023-01-29T23:34:12.200Z,37.20
2023-01-29T23:36:38.640Z,36.33
2023-01-29T23:39:05.261Z,29.33
2023-01-29T23:41:31.850Z,29.48
2023-01-29T23:43:58.389Z,33.20
2023-01-29T23:46:24.976Z,24.83
2023-01-29T23:48:51.585Z,29.43
2023-01-29T23:51:18.249Z,35.78
2023-01-29T23:53:44.771Z,30.92
2023-01-29T23:56:11.634Z,37.13
2023-01-29T23:58:38.192Z,28.75
